sensor_id;sensor_type;location;lat;lon;timestamp;temperature;humidity
37412;DHT22;23278;52.110;6.050;2023-04-24T00:00:15;9.50;99.90
37412;DHT22;23278;52.110;6.050;2023-04-24T00:02:42;9.50;99.90
37412;DHT22;23278;52.110;6.050;2023-04-24T00:05:10;9.50;99.90
37412;DHT22;23278;52.110;6.050;2023-04-24T00:07:37;9.40;99.90
37412;DHT22;23278;52.110;6.050;2023-04-24T00:10:03;9.40;99.90
37412;DHT22;23278;52.110;6.050;2023-04-24T00:12:29;9.50;99.90
37412;DHT22;23278;52.110;6.050;2023-04-24T00:14:56;9.50;99.90
37412;DHT22;23278;52.110;6.050;2023-04-24T00:17:22;9.50;99.90
37412;DHT22;23278;52.110;6.050;2023-04-24T00:19:48;9.50;99.90
37412;DHT22;23278;52.110;6.050;2023-04-24T00:22:14;9.50;99.90
37412;DHT22;23278;52.110;6.050;2023-04-24T00:24:40;9.50;99.90
37412;DHT22;23278;52.110;6.050;2023-04-24T00:27:06;9.50;99.90
37412;DHT22;23278;52.110;6.050;2023-04-24T00:29:32;9.50;99.90
37412;DHT22;23278;52.110;6.050;2023-04-24T00:31:58;9.50;99.90
37412;DHT22;23278;52.110;6.050;2023-04-24T00:34:24;9.50;99.90
37412;DHT22;23278;52.110;6.050;2023-04-24T00:36:50;9.60;99.90
37412;DHT22;23278;52.110;6.050;2023-04-24T00:39:21;9.60;99.90
37412;DHT22;23278;52.110;6.050;2023-04-24T00:41:48;9.60;99.90
37412;DHT22;23278;52.110;6.050;2023-04-24T00:44:16;9.60;99.90
37412;DHT22;23278;52.110;6.050;2023-04-24T00:46:42;9.50;99.90
37412;DHT22;23278;52.110;6.050;2023-04-24T00:49:08;9.50;99.90
37412;DHT22;23278;52.110;6.050;2023-04-24T00:51:34;9.60;99.90
37412;DHT22;23278;52.110;6.050;2023-04-24T00:54:02;9.60;99.90
37412;DHT22;23278;52.110;6.050;2023-04-24T00:56:28;9.60;99.90
37412;DHT22;23278;52.110;6.050;2023-04-24T00:58:55;9.60;99.90
37412;DHT22;23278;52.110;6.050;2023-04-24T01:01:21;9.60;99.90
37412;DHT22;23278;52.110;6.050;2023-04-24T01:03:49;9.60;99.90
37412;DHT22;23278;52.110;6.050;2023-04-24T01:06:16;9.60;99.90
37412;DHT22;23278;52.110;6.050;2023-04-24T01:08:45;9.60;99.90
37412;DHT22;23278;52.110;6.050;2023-04-24T01:11:12;9.60;99.90
37412;DHT22;23278;52.110;6.050;2023-04-24T01:13:38;9.60;99.90
37412;DHT22;23278;52.110;6.050;2023-04-24T01:16:05;9.50;99.90
37412;DHT22;23278;52.110;6.050;2023-04-24T01:18:33;9.50;99.90
37412;DHT22;23278;52.110;6.050;2023-04-24T01:21:04;9.50;99.90
37412;DHT22;23278;52.110;6.050;2023-04-24T01:23:30;9.50;99.90
37412;DHT22;23278;52.110;6.050;2023-04-24T01:25:56;9.50;99.90
37412;DHT22;23278;52.110;6.050;2023-04-24T01:28:25;9.50;99.90
37412;DHT22;23278;52.110;6.050;2023-04-24T01:30:51;9.50;99.90
37412;DHT22;23278;52.110;6.050;2023-04-24T01:33:22;9.50;99.90
37412;DHT22;23278;52.110;6.050;2023-04-24T01:35:48;9.50;99.90
37412;DHT22;23278;52.110;6.050;2023-04-24T01:38:15;9.50;99.90
37412;DHT22;23278;52.110;6.050;2023-04-24T01:40:40;9.50;99.90
37412;DHT22;23278;52.110;6.050;2023-04-24T01:43:06;9.50;99.90
37412;DHT22;23278;52.110;6.050;2023-04-24T01:45:33;9.40;99.90
37412;DHT22;23278;52.110;6.050;2023-04-24T01:47:59;9.40;99.90
37412;DHT22;23278;52.110;6.050;2023-04-24T01:50:25;9.30;99.90
37412;DHT22;23278;52.110;6.050;2023-04-24T01:52:51;9.30;99.90
37412;DHT22;23278;52.110;6.050;2023-04-24T01:55:18;9.20;99.90
37412;DHT22;23278;52.110;6.050;2023-04-24T01:57:44;9.10;99.90
37412;DHT22;23278;52.110;6.050;2023-04-24T02:00:11;9.00;99.90
37412;DHT22;23278;52.110;6.050;2023-04-24T02:02:40;9.00;99.90
37412;DHT22;23278;52.110;6.050;2023-04-24T02:05:08;9.00;99.90
37412;DHT22;23278;52.110;6.050;2023-04-24T02:07:36;9.00;99.90
37412;DHT22;23278;52.110;6.050;2023-04-24T02:10:03;9.00;99.90
37412;DHT22;23278;52.110;6.050;2023-04-24T02:12:30;9.00;99.90
37412;DHT22;23278;52.110;6.050;2023-04-24T02:14:56;9.00;99.90
37412;DHT22;23278;52.110;6.050;2023-04-24T02:17:22;9.00;99.90
37412;DHT22;23278;52.110;6.050;2023-04-24T02:19:48;9.10;99.90
37412;DHT22;23278;52.110;6.050;2023-04-24T02:22:14;9.10;99.90
37412;DHT22;23278;52.110;6.050;2023-04-24T02:24:40;9.20;99.90
37412;DHT22;23278;52.110;6.050;2023-04-24T02:27:06;9.20;99.90
37412;DHT22;23278;52.110;6.050;2023-04-24T02:29:32;9.30;99.90
37412;DHT22;23278;52.110;6.050;2023-04-24T02:31:58;9.30;99.90
37412;DHT22;23278;52.110;6.050;2023-04-24T02:34:25;9.30;99.90
37412;DHT22;23278;52.110;6.050;2023-04-24T02:36:51;9.40;99.90
37412;DHT22;23278;52.110;6.050;2023-04-24T02:39:17;9.40;99.90
37412;DHT22;23278;52.110;6.050;2023-04-24T02:41:43;9.40;99.90
37412;DHT22;23278;52.110;6.050;2023-04-24T02:44:09;9.40;99.90
37412;DHT22;23278;52.110;6.050;2023-04-24T02:46:35;9.50;99.90
37412;DHT22;23278;52.110;6.050;2023-04-24T02:49:01;9.50;99.90
37412;DHT22;23278;52.110;6.050;2023-04-24T02:51:29;9.50;99.90
37412;DHT22;23278;52.110;6.050;2023-04-24T02:53:55;9.50;99.90
37412;DHT22;23278;52.110;6.050;2023-04-24T02:56:21;9.50;99.90
37412;DHT22;23278;52.110;6.050;2023-04-24T02:58:47;9.50;99.90
37412;DHT22;23278;52.110;6.050;2023-04-24T03:01:13;9.60;99.90
37412;DHT22;23278;52.110;6.050;2023-04-24T03:03:39;9.60;99.90
37412;DHT22;23278;52.110;6.050;2023-04-24T03:06:05;9.60;99.90
37412;DHT22;23278;52.110;6.050;2023-04-24T03:08:32;9.60;99.90
37412;DHT22;23278;52.110;6.050;2023-04-24T03:10:58;9.70;99.90
37412;DHT22;23278;52.110;6.050;2023-04-24T03:13:24;9.70;99.90
37412;DHT22;23278;52.110;6.050;2023-04-24T03:15:50;9.70;99.90
37412;DHT22;23278;52.110;6.050;2023-04-24T03:18:16;9.70;99.90
37412;DHT22;23278;52.110;6.050;2023-04-24T03:20:42;9.70;99.90
37412;DHT22;23278;52.110;6.050;2023-04-24T03:23:08;9.60;99.90
37412;DHT22;23278;52.110;6.050;2023-04-24T03:25:36;9.60;99.90
37412;DHT22;23278;52.110;6.050;2023-04-24T03:28:02;9.60;99.90
37412;DHT22;23278;52.110;6.050;2023-04-24T03:30:36;9.60;99.90
37412;DHT22;23278;52.110;6.050;2023-04-24T03:33:03;9.60;99.90
37412;DHT22;23278;52.110;6.050;2023-04-24T03:35:32;9.60;99.90
37412;DHT22;23278;52.110;6.050;2023-04-24T03:38:02;9.60;99.90
37412;DHT22;23278;52.110;6.050;2023-04-24T03:40:49;9.60;99.90
37412;DHT22;23278;52.110;6.050;2023-04-24T03:43:29;9.60;99.90
37412;DHT22;23278;52.110;6.050;2023-04-24T03:45:57;9.60;99.90
37412;DHT22;23278;52.110;6.050;2023-04-24T03:48:24;9.50;99.90
37412;DHT22;23278;52.110;6.050;2023-04-24T03:50:50;9.50;99.90
37412;DHT22;23278;52.110;6.050;2023-04-24T03:53:16;9.50;99.90
37412;DHT22;23278;52.110;6.050;2023-04-24T03:55:43;9.50;99.90
37412;DHT22;23278;52.110;6.050;2023-04-24T03:58:09;9.50;99.90
37412;DHT22;23278;52.110;6.050;2023-04-24T04:00:37;9.50;99.90
37412;DHT22;23278;52.110;6.050;2023-04-24T04:03:32;9.50;99.90
37412;DHT22;23278;52.110;6.050;2023-04-24T04:05:58;9.50;99.90
37412;DHT22;23278;52.110;6.050;2023-04-24T04:08:24;9.50;99.90
37412;DHT22;23278;52.110;6.050;2023-04-24T04:10:50;9.40;99.90
37412;DHT22;23278;52.110;6.050;2023-04-24T04:13:16;9.40;99.90
37412;DHT22;23278;52.110;6.050;2023-04-24T04:15:42;9.40;99.90
37412;DHT22;23278;52.110;6.050;2023-04-24T04:18:08;9.40;99.90
37412;DHT22;23278;52.110;6.050;2023-04-24T04:20:34;9.40;99.90
37412;DHT22;23278;52.110;6.050;2023-04-24T04:23:00;9.40;99.90
37412;DHT22;23278;52.110;6.050;2023-04-24T04:25:38;9.40;99.90
37412;DHT22;23278;52.110;6.050;2023-04-24T04:28:04;9.40;99.90
37412;DHT22;23278;52.110;6.050;2023-04-24T04:30:30;9.40;99.90
37412;DHT22;23278;52.110;6.050;2023-04-24T04:33:03;9.30;99.90
37412;DHT22;23278;52.110;6.050;2023-04-24T04:35:30;9.40;99.90
37412;DHT22;23278;52.110;6.050;2023-04-24T04:37:56;9.40;99.90
37412;DHT22;23278;52.110;6.050;2023-04-24T04:40:43;9.40;99.90
37412;DHT22;23278;52.110;6.050;2023-04-24T04:43:11;9.40;99.90
37412;DHT22;23278;52.110;6.050;2023-04-24T04:45:43;9.40;99.90
37412;DHT22;23278;52.110;6.050;2023-04-24T04:48:34;9.40;99.90
37412;DHT22;23278;52.110;6.050;2023-04-24T04:51:04;9.30;99.90
37412;DHT22;23278;52.110;6.050;2023-04-24T04:53:30;9.30;99.90
37412;DHT22;23278;52.110;6.050;2023-04-24T04:55:56;9.30;99.90
37412;DHT22;23278;52.110;6.050;2023-04-24T04:58:27;9.30;99.90
37412;DHT22;23278;52.110;6.050;2023-04-24T05:00:57;9.30;99.90
37412;DHT22;23278;52.110;6.050;2023-04-24T05:03:30;9.30;99.90
37412;DHT22;23278;52.110;6.050;2023-04-24T05:06:03;9.30;99.90
37412;DHT22;23278;52.110;6.050;2023-04-24T05:08:33;9.30;99.90
37412;DHT22;23278;52.110;6.050;2023-04-24T05:10:59;9.30;99.90
37412;DHT22;23278;52.110;6.050;2023-04-24T05:13:27;9.30;99.90
37412;DHT22;23278;52.110;6.050;2023-04-24T05:15:53;9.30;99.90
37412;DHT22;23278;52.110;6.050;2023-04-24T05:18:20;9.30;99.90
37412;DHT22;23278;52.110;6.050;2023-04-24T05:20:46;9.30;99.90
37412;DHT22;23278;52.110;6.050;2023-04-24T05:23:12;9.20;99.90
37412;DHT22;23278;52.110;6.050;2023-04-24T05:25:40;9.30;99.90
37412;DHT22;23278;52.110;6.050;2023-04-24T05:28:10;9.30;99.90
37412;DHT22;23278;52.110;6.050;2023-04-24T05:30:37;9.30;99.90
37412;DHT22;23278;52.110;6.050;2023-04-24T05:33:03;9.40;99.90
37412;DHT22;23278;52.110;6.050;2023-04-24T05:35:32;9.30;99.90
37412;DHT22;23278;52.110;6.050;2023-04-24T05:37:58;9.30;99.90
37412;DHT22;23278;52.110;6.050;2023-04-24T05:40:23;9.30;99.90
37412;DHT22;23278;52.110;6.050;2023-04-24T05:42:49;9.30;99.90
37412;DHT22;23278;52.110;6.050;2023-04-24T05:45:15;9.30;99.90
37412;DHT22;23278;52.110;6.050;2023-04-24T05:47:43;9.40;99.90
37412;DHT22;23278;52.110;6.050;2023-04-24T05:50:10;9.40;99.90
37412;DHT22;23278;52.110;6.050;2023-04-24T05:52:37;9.40;99.90
37412;DHT22;23278;52.110;6.050;2023-04-24T05:55:09;9.40;99.90
37412;DHT22;23278;52.110;6.050;2023-04-24T05:57:38;9.40;99.90
37412;DHT22;23278;52.110;6.050;2023-04-24T06:00:04;9.50;99.90
37412;DHT22;23278;52.110;6.050;2023-04-24T06:02:43;9.50;99.90
37412;DHT22;23278;52.110;6.050;2023-04-24T06:05:11;9.50;99.90
37412;DHT22;23278;52.110;6.050;2023-04-24T06:07:37;9.60;99.90
37412;DHT22;23278;52.110;6.050;2023-04-24T06:10:06;9.60;99.90
37412;DHT22;23278;52.110;6.050;2023-04-24T06:12:39;9.70;99.90
37412;DHT22;23278;52.110;6.050;2023-04-24T06:15:10;9.70;99.90
37412;DHT22;23278;52.110;6.050;2023-04-24T06:17:59;9.70;99.90
37412;DHT22;23278;52.110;6.050;2023-04-24T06:20:27;9.70;99.90
37412;DHT22;23278;52.110;6.050;2023-04-24T06:22:53;9.80;99.90
37412;DHT22;23278;52.110;6.050;2023-04-24T06:25:19;9.70;99.90
37412;DHT22;23278;52.110;6.050;2023-04-24T06:27:46;9.80;99.90
37412;DHT22;23278;52.110;6.050;2023-04-24T06:30:12;9.70;99.90
37412;DHT22;23278;52.110;6.050;2023-04-24T06:32:38;9.70;99.90
37412;DHT22;23278;52.110;6.050;2023-04-24T06:35:04;9.70;99.90
37412;DHT22;23278;52.110;6.050;2023-04-24T06:37:30;9.60;99.90
37412;DHT22;23278;52.110;6.050;2023-04-24T06:39:57;9.60;99.90
37412;DHT22;23278;52.110;6.050;2023-04-24T06:42:23;9.60;99.90
37412;DHT22;23278;52.110;6.050;2023-04-24T06:44:50;9.60;99.90
37412;DHT22;23278;52.110;6.050;2023-04-24T06:47:16;9.60;99.90
37412;DHT22;23278;52.110;6.050;2023-04-24T06:49:42;9.60;99.90
37412;DHT22;23278;52.110;6.050;2023-04-24T06:52:08;9.70;99.90
37412;DHT22;23278;52.110;6.050;2023-04-24T06:54:34;9.70;99.90
37412;DHT22;23278;52.110;6.050;2023-04-24T06:57:00;9.70;99.90
37412;DHT22;23278;52.110;6.050;2023-04-24T06:59:26;9.70;99.90
37412;DHT22;23278;52.110;6.050;2023-04-24T07:01:54;9.80;99.90
37412;DHT22;23278;52.110;6.050;2023-04-24T07:04:20;9.80;99.90
37412;DHT22;23278;52.110;6.050;2023-04-24T07:06:47;9.80;99.90
37412;DHT22;23278;52.110;6.050;2023-04-24T07:09:15;9.80;99.90
37412;DHT22;23278;52.110;6.050;2023-04-24T07:11:45;9.80;99.90
37412;DHT22;23278;52.110;6.050;2023-04-24T07:14:11;9.80;99.90
37412;DHT22;23278;52.110;6.050;2023-04-24T07:16:37;9.90;99.90
37412;DHT22;23278;52.110;6.050;2023-04-24T07:19:03;9.90;99.90
37412;DHT22;23278;52.110;6.050;2023-04-24T07:21:29;9.90;99.90
37412;DHT22;23278;52.110;6.050;2023-04-24T07:23:57;9.80;99.90
37412;DHT22;23278;52.110;6.050;2023-04-24T07:26:23;9.80;99.90
37412;DHT22;23278;52.110;6.050;2023-04-24T07:28:49;9.80;99.90
37412;DHT22;23278;52.110;6.050;2023-04-24T07:31:15;9.70;99.90
37412;DHT22;23278;52.110;6.050;2023-04-24T07:33:41;9.70;99.90
37412;DHT22;23278;52.110;6.050;2023-04-24T07:36:07;9.70;99.90
37412;DHT22;23278;52.110;6.050;2023-04-24T07:38:33;9.70;99.90
37412;DHT22;23278;52.110;6.050;2023-04-24T07:40:59;9.70;99.90
37412;DHT22;23278;52.110;6.050;2023-04-24T07:43:25;9.80;99.90
37412;DHT22;23278;52.110;6.050;2023-04-24T07:45:51;9.80;99.90
37412;DHT22;23278;52.110;6.050;2023-04-24T07:48:17;9.80;99.90
37412;DHT22;23278;52.110;6.050;2023-04-24T07:50:44;9.80;99.90
37412;DHT22;23278;52.110;6.050;2023-04-24T07:53:10;9.80;99.90
37412;DHT22;23278;52.110;6.050;2023-04-24T07:55:37;9.80;99.90
37412;DHT22;23278;52.110;6.050;2023-04-24T07:58:03;9.80;99.90
37412;DHT22;23278;52.110;6.050;2023-04-24T08:00:29;9.80;99.90
37412;DHT22;23278;52.110;6.050;2023-04-24T08:02:55;9.80;99.90
37412;DHT22;23278;52.110;6.050;2023-04-24T08:05:21;9.80;99.90
37412;DHT22;23278;52.110;6.050;2023-04-24T08:07:47;9.80;99.90
37412;DHT22;23278;52.110;6.050;2023-04-24T08:10:15;9.80;99.90
37412;DHT22;23278;52.110;6.050;2023-04-24T08:12:41;9.80;99.90
37412;DHT22;23278;52.110;6.050;2023-04-24T08:15:08;9.70;99.90
37412;DHT22;23278;52.110;6.050;2023-04-24T08:17:35;9.80;99.90
37412;DHT22;23278;52.110;6.050;2023-04-24T08:20:05;9.80;99.90
37412;DHT22;23278;52.110;6.050;2023-04-24T08:22:31;9.80;99.90
37412;DHT22;23278;52.110;6.050;2023-04-24T08:24:59;9.80;99.90
37412;DHT22;23278;52.110;6.050;2023-04-24T08:27:26;9.70;99.90
37412;DHT22;23278;52.110;6.050;2023-04-24T08:29:57;9.70;99.90
37412;DHT22;23278;52.110;6.050;2023-04-24T08:32:24;9.60;99.90
37412;DHT22;23278;52.110;6.050;2023-04-24T08:34:50;9.60;99.90
37412;DHT22;23278;52.110;6.050;2023-04-24T08:37:18;9.60;99.90
37412;DHT22;23278;52.110;6.050;2023-04-24T08:39:44;9.60;99.90
37412;DHT22;23278;52.110;6.050;2023-04-24T08:42:11;9.50;99.90
37412;DHT22;23278;52.110;6.050;2023-04-24T08:44:38;9.50;99.90
37412;DHT22;23278;52.110;6.050;2023-04-24T08:47:05;9.50;99.90
37412;DHT22;23278;52.110;6.050;2023-04-24T08:49:31;9.50;99.90
37412;DHT22;23278;52.110;6.050;2023-04-24T08:51:58;9.60;99.90
37412;DHT22;23278;52.110;6.050;2023-04-24T08:54:26;9.60;99.90
37412;DHT22;23278;52.110;6.050;2023-04-24T08:56:53;9.70;99.90
37412;DHT22;23278;52.110;6.050;2023-04-24T08:59:22;9.70;99.90
37412;DHT22;23278;52.110;6.050;2023-04-24T09:01:48;9.80;99.90
37412;DHT22;23278;52.110;6.050;2023-04-24T09:04:17;9.80;99.90
37412;DHT22;23278;52.110;6.050;2023-04-24T09:06:45;9.80;99.90
37412;DHT22;23278;52.110;6.050;2023-04-24T09:09:11;9.80;99.90
37412;DHT22;23278;52.110;6.050;2023-04-24T09:11:37;9.80;99.90
37412;DHT22;23278;52.110;6.050;2023-04-24T09:14:04;9.80;99.90
37412;DHT22;23278;52.110;6.050;2023-04-24T09:16:30;9.90;99.90
37412;DHT22;23278;52.110;6.050;2023-04-24T09:18:58;9.90;99.90
37412;DHT22;23278;52.110;6.050;2023-04-24T09:21:34;9.90;99.90
37412;DHT22;23278;52.110;6.050;2023-04-24T09:24:03;9.90;99.90
37412;DHT22;23278;52.110;6.050;2023-04-24T09:26:30;9.80;99.90
37412;DHT22;23278;52.110;6.050;2023-04-24T09:29:00;9.70;99.90
37412;DHT22;23278;52.110;6.050;2023-04-24T09:31:30;9.70;99.90
37412;DHT22;23278;52.110;6.050;2023-04-24T09:34:00;9.80;99.90
37412;DHT22;23278;52.110;6.050;2023-04-24T09:36:30;9.80;99.90
37412;DHT22;23278;52.110;6.050;2023-04-24T09:39:02;9.70;99.90
37412;DHT22;23278;52.110;6.050;2023-04-24T09:41:28;9.70;99.90
37412;DHT22;23278;52.110;6.050;2023-04-24T09:43:56;9.70;99.90
37412;DHT22;23278;52.110;6.050;2023-04-24T09:46:29;9.70;99.90
37412;DHT22;23278;52.110;6.050;2023-04-24T09:48:56;9.70;99.90
37412;DHT22;23278;52.110;6.050;2023-04-24T09:51:36;9.70;99.90
37412;DHT22;23278;52.110;6.050;2023-04-24T09:54:16;9.90;99.90
37412;DHT22;23278;52.110;6.050;2023-04-24T09:56:47;9.90;99.90
37412;DHT22;23278;52.110;6.050;2023-04-24T09:59:18;9.90;99.90
37412;DHT22;23278;52.110;6.050;2023-04-24T10:01:44;10.00;99.90
37412;DHT22;23278;52.110;6.050;2023-04-24T10:06:45;10.40;99.90
37412;DHT22;23278;52.110;6.050;2023-04-24T10:09:11;10.60;99.90
37412;DHT22;23278;52.110;6.050;2023-04-24T10:11:42;10.90;99.90
37412;DHT22;23278;52.110;6.050;2023-04-24T10:14:10;11.20;99.90
37412;DHT22;23278;52.110;6.050;2023-04-24T10:16:39;11.40;99.90
37412;DHT22;23278;52.110;6.050;2023-04-24T10:19:06;11.60;99.90
37412;DHT22;23278;52.110;6.050;2023-04-24T10:21:34;11.50;99.90
37412;DHT22;23278;52.110;6.050;2023-04-24T10:24:01;11.30;99.90
37412;DHT22;23278;52.110;6.050;2023-04-24T10:26:29;11.00;99.90
37412;DHT22;23278;52.110;6.050;2023-04-24T10:28:57;10.90;99.90
37412;DHT22;23278;52.110;6.050;2023-04-24T10:31:24;10.80;99.90
37412;DHT22;23278;52.110;6.050;2023-04-24T10:33:51;11.00;99.90
37412;DHT22;23278;52.110;6.050;2023-04-24T10:36:19;11.30;99.90
37412;DHT22;23278;52.110;6.050;2023-04-24T10:38:48;11.60;99.90
37412;DHT22;23278;52.110;6.050;2023-04-24T10:41:18;12.40;99.90
37412;DHT22;23278;52.110;6.050;2023-04-24T10:44:03;13.40;99.90
37412;DHT22;23278;52.110;6.050;2023-04-24T10:46:30;14.30;99.90
37412;DHT22;23278;52.110;6.050;2023-04-24T10:48:56;14.30;98.20
37412;DHT22;23278;52.110;6.050;2023-04-24T10:51:24;13.90;98.60
37412;DHT22;23278;52.110;6.050;2023-04-24T10:53:51;13.50;98.20
37412;DHT22;23278;52.110;6.050;2023-04-24T10:56:17;13.30;99.20
37412;DHT22;23278;52.110;6.050;2023-04-24T10:58:45;13.20;99.70
37412;DHT22;23278;52.110;6.050;2023-04-24T11:01:26;12.90;99.90
37412;DHT22;23278;52.110;6.050;2023-04-24T11:04:02;13.00;99.90
37412;DHT22;23278;52.110;6.050;2023-04-24T11:06:33;13.10;99.90
37412;DHT22;23278;52.110;6.050;2023-04-24T11:09:08;13.10;99.90
37412;DHT22;23278;52.110;6.050;2023-04-24T11:11:37;13.10;99.90
37412;DHT22;23278;52.110;6.050;2023-04-24T11:14:05;13.20;99.90
37412;DHT22;23278;52.110;6.050;2023-04-24T11:16:38;13.10;99.90
37412;DHT22;23278;52.110;6.050;2023-04-24T11:19:07;13.00;99.90
37412;DHT22;23278;52.110;6.050;2023-04-24T11:27:11;13.10;99.90
37412;DHT22;23278;52.110;6.050;2023-04-24T11:35:17;14.40;96.60
37412;DHT22;23278;52.110;6.050;2023-04-24T11:37:43;14.10;95.80
37412;DHT22;23278;52.110;6.050;2023-04-24T11:40:13;13.70;96.40
37412;DHT22;23278;52.110;6.050;2023-04-24T11:42:43;13.30;96.80
37412;DHT22;23278;52.110;6.050;2023-04-24T11:45:13;12.90;97.10
37412;DHT22;23278;52.110;6.050;2023-04-24T11:47:40;12.70;97.00
37412;DHT22;23278;52.110;6.050;2023-04-24T11:50:12;12.50;96.50
37412;DHT22;23278;52.110;6.050;2023-04-24T11:52:41;12.20;97.30
37412;DHT22;23278;52.110;6.050;2023-04-24T11:57:54;11.60;99.90
37412;DHT22;23278;52.110;6.050;2023-04-24T12:00:22;11.40;99.90
37412;DHT22;23278;52.110;6.050;2023-04-24T12:02:49;11.40;99.90
37412;DHT22;23278;52.110;6.050;2023-04-24T12:05:20;11.90;99.90
37412;DHT22;23278;52.110;6.050;2023-04-24T12:07:46;13.00;99.90
37412;DHT22;23278;52.110;6.050;2023-04-24T12:10:12;14.00;98.50
37412;DHT22;23278;52.110;6.050;2023-04-24T12:12:38;14.90;96.90
37412;DHT22;23278;52.110;6.050;2023-04-24T12:15:08;15.10;94.50
37412;DHT22;23278;52.110;6.050;2023-04-24T12:17:35;14.90;94.00
37412;DHT22;23278;52.110;6.050;2023-04-24T12:20:04;14.80;93.90
37412;DHT22;23278;52.110;6.050;2023-04-24T12:23:01;15.00;93.90
37412;DHT22;23278;52.110;6.050;2023-04-24T12:25:32;15.90;91.50
37412;DHT22;23278;52.110;6.050;2023-04-24T12:30:31;17.50;86.10
37412;DHT22;23278;52.110;6.050;2023-04-24T12:32:59;17.10;85.60
37412;DHT22;23278;52.110;6.050;2023-04-24T12:35:28;16.20;85.60
37412;DHT22;23278;52.110;6.050;2023-04-24T12:37:55;15.20;87.80
37412;DHT22;23278;52.110;6.050;2023-04-24T12:40:21;14.30;90.30
37412;DHT22;23278;52.110;6.050;2023-04-24T12:42:49;13.50;92.00
37412;DHT22;23278;52.110;6.050;2023-04-24T12:45:17;13.10;93.70
37412;DHT22;23278;52.110;6.050;2023-04-24T12:47:43;13.00;95.50
37412;DHT22;23278;52.110;6.050;2023-04-24T12:50:14;13.20;96.20
37412;DHT22;23278;52.110;6.050;2023-04-24T12:52:41;13.30;95.70
37412;DHT22;23278;52.110;6.050;2023-04-24T12:55:08;13.40;95.50
37412;DHT22;23278;52.110;6.050;2023-04-24T12:57:36;13.30;95.40
37412;DHT22;23278;52.110;6.050;2023-04-24T13:00:03;13.10;95.00
37412;DHT22;23278;52.110;6.050;2023-04-24T13:02:31;12.90;95.80
37412;DHT22;23278;52.110;6.050;2023-04-24T13:04:58;12.80;96.10
37412;DHT22;23278;52.110;6.050;2023-04-24T13:07:25;12.70;96.30
37412;DHT22;23278;52.110;6.050;2023-04-24T13:09:52;12.60;96.40
37412;DHT22;23278;52.110;6.050;2023-04-24T13:12:18;12.50;95.40
37412;DHT22;23278;52.110;6.050;2023-04-24T13:14:44;12.30;94.80
37412;DHT22;23278;52.110;6.050;2023-04-24T13:17:11;12.30;95.00
37412;DHT22;23278;52.110;6.050;2023-04-24T13:19:39;12.30;95.20
37412;DHT22;23278;52.110;6.050;2023-04-24T13:22:06;12.40;95.00
37412;DHT22;23278;52.110;6.050;2023-04-24T13:24:33;12.40;94.50
37412;DHT22;23278;52.110;6.050;2023-04-24T13:26:59;12.40;94.50
37412;DHT22;23278;52.110;6.050;2023-04-24T13:29:25;12.40;94.20
37412;DHT22;23278;52.110;6.050;2023-04-24T13:31:52;12.50;93.90
37412;DHT22;23278;52.110;6.050;2023-04-24T13:34:21;12.60;93.00
37412;DHT22;23278;52.110;6.050;2023-04-24T13:36:47;12.70;91.90
37412;DHT22;23278;52.110;6.050;2023-04-24T13:39:13;12.70;91.10
37412;DHT22;23278;52.110;6.050;2023-04-24T13:41:39;12.60;91.20
37412;DHT22;23278;52.110;6.050;2023-04-24T13:44:06;12.50;91.50
37412;DHT22;23278;52.110;6.050;2023-04-24T13:46:32;12.30;91.50
37412;DHT22;23278;52.110;6.050;2023-04-24T13:48:58;12.20;92.40
37412;DHT22;23278;52.110;6.050;2023-04-24T13:51:27;12.00;93.50
37412;DHT22;23278;52.110;6.050;2023-04-24T13:53:54;11.80;95.60
37412;DHT22;23278;52.110;6.050;2023-04-24T13:56:21;11.60;97.80
37412;DHT22;23278;52.110;6.050;2023-04-24T13:58:48;11.30;99.50
37412;DHT22;23278;52.110;6.050;2023-04-24T14:01:14;11.30;99.90
37412;DHT22;23278;52.110;6.050;2023-04-24T14:03:41;11.30;99.90
37412;DHT22;23278;52.110;6.050;2023-04-24T14:06:08;11.60;99.90
37412;DHT22;23278;52.110;6.050;2023-04-24T14:08:34;11.60;98.90
37412;DHT22;23278;52.110;6.050;2023-04-24T14:11:00;11.60;99.10
37412;DHT22;23278;52.110;6.050;2023-04-24T14:13:27;11.70;98.80
37412;DHT22;23278;52.110;6.050;2023-04-24T14:15:53;12.20;98.30
37412;DHT22;23278;52.110;6.050;2023-04-24T14:18:19;13.70;96.90
37412;DHT22;23278;52.110;6.050;2023-04-24T14:20:45;17.30;90.00
37412;DHT22;23278;52.110;6.050;2023-04-24T14:23:11;20.00;73.70
37412;DHT22;23278;52.110;6.050;2023-04-24T14:25:37;19.40;69.60
37412;DHT22;23278;52.110;6.050;2023-04-24T14:28:03;18.10;70.90
37412;DHT22;23278;52.110;6.050;2023-04-24T14:30:29;17.00;72.10
37412;DHT22;23278;52.110;6.050;2023-04-24T14:32:55;16.00;75.60
37412;DHT22;23278;52.110;6.050;2023-04-24T14:35:21;15.30;77.50
37412;DHT22;23278;52.110;6.050;2023-04-24T14:37:47;14.60;79.40
37412;DHT22;23278;52.110;6.050;2023-04-24T14:40:14;14.10;81.70
37412;DHT22;23278;52.110;6.050;2023-04-24T14:42:40;13.80;83.00
37412;DHT22;23278;52.110;6.050;2023-04-24T14:45:07;13.60;81.30
37412;DHT22;23278;52.110;6.050;2023-04-24T14:47:33;14.30;78.60
37412;DHT22;23278;52.110;6.050;2023-04-24T14:49:59;16.70;70.60
37412;DHT22;23278;52.110;6.050;2023-04-24T14:52:25;17.20;65.90
37412;DHT22;23278;52.110;6.050;2023-04-24T14:54:51;17.80;62.90
37412;DHT22;23278;52.110;6.050;2023-04-24T14:57:17;17.70;61.10
37412;DHT22;23278;52.110;6.050;2023-04-24T14:59:43;17.20;62.70
37412;DHT22;23278;52.110;6.050;2023-04-24T15:02:09;17.40;62.10
37412;DHT22;23278;52.110;6.050;2023-04-24T15:04:36;16.90;63.80
37412;DHT22;23278;52.110;6.050;2023-04-24T15:07:02;16.20;66.10
37412;DHT22;23278;52.110;6.050;2023-04-24T15:09:28;15.60;69.00
37412;DHT22;23278;52.110;6.050;2023-04-24T15:11:54;15.20;71.60
37412;DHT22;23278;52.110;6.050;2023-04-24T15:14:20;15.60;72.30
37412;DHT22;23278;52.110;6.050;2023-04-24T15:16:46;15.40;72.80
37412;DHT22;23278;52.110;6.050;2023-04-24T15:19:12;15.00;73.30
37412;DHT22;23278;52.110;6.050;2023-04-24T15:21:38;14.60;74.10
37412;DHT22;23278;52.110;6.050;2023-04-24T15:24:07;14.20;74.10
37412;DHT22;23278;52.110;6.050;2023-04-24T15:26:33;14.00;74.80
37412;DHT22;23278;52.110;6.050;2023-04-24T15:28:58;14.00;75.00
37412;DHT22;23278;52.110;6.050;2023-04-24T15:31:24;14.30;74.50
37412;DHT22;23278;52.110;6.050;2023-04-24T15:33:50;14.30;73.60
37412;DHT22;23278;52.110;6.050;2023-04-24T15:36:17;14.10;73.70
37412;DHT22;23278;52.110;6.050;2023-04-24T15:38:43;13.90;74.30
37412;DHT22;23278;52.110;6.050;2023-04-24T15:41:10;13.60;73.90
37412;DHT22;23278;52.110;6.050;2023-04-24T15:43:36;13.30;75.50
37412;DHT22;23278;52.110;6.050;2023-04-24T15:46:04;13.60;75.70
37412;DHT22;23278;52.110;6.050;2023-04-24T15:48:31;15.00;69.80
37412;DHT22;23278;52.110;6.050;2023-04-24T15:50:57;14.80;67.70
37412;DHT22;23278;52.110;6.050;2023-04-24T15:53:24;14.80;68.70
37412;DHT22;23278;52.110;6.050;2023-04-24T15:55:52;14.80;69.60
37412;DHT22;23278;52.110;6.050;2023-04-24T15:58:19;14.50;69.40
37412;DHT22;23278;52.110;6.050;2023-04-24T16:00:46;14.00;70.60